createdAt,value
2023-02-11T00:01:44.312Z,-3.99
2023-02-11T00:04:46.146Z,-4.07
2023-02-11T00:07:48.106Z,-4.15
2023-02-11T00:10:58.307Z,-4.23
2023-02-11T00:14:02.744Z,-4.22
2023-02-11T00:17:04.644Z,-4.16
2023-02-11T00:20:08.294Z,-4.00
2023-02-11T00:23:10.688Z,-3.82
2023-02-11T00:26:17.833Z,-3.74
2023-02-11T00:29:20.345Z,-4.00
2023-02-11T00:32:22.241Z,-3.92
2023-02-11T00:35:25.334Z,-4.28
2023-02-11T00:38:27.419Z,-4.32
2023-02-11T00:41:29.918Z,-4.34
2023-02-11T00:44:34.384Z,-4.47
2023-02-11T00:47:36.418Z,-4.52
2023-02-11T00:50:38.416Z,-4.46
2023-02-11T00:53:40.578Z,-4.52
2023-02-11T00:56:42.468Z,-4.58
2023-02-11T00:59:44.797Z,-4.66
2023-02-11T01:02:46.679Z,-4.71
2023-02-11T01:05:48.994Z,-4.64
2023-02-11T01:08:51.281Z,-4.70
2023-02-11T01:11:53.310Z,-4.62
2023-02-11T01:14:55.258Z,-4.78
2023-02-11T01:17:57.350Z,-4.88
2023-02-11T01:20:59.243Z,-4.90
2023-02-11T01:24:01.125Z,-4.90
2023-02-11T01:27:03.501Z,-4.90
2023-02-11T01:30:08.159Z,-4.91
2023-02-11T01:33:10.146Z,-4.91
2023-02-11T01:36:13.096Z,-4.97
2023-02-11T01:39:15.037Z,-5.00
2023-02-11T01:42:19.666Z,-5.08
2023-02-11T01:45:43.020Z,-4.98
2023-02-11T01:48:51.219Z,-5.01
2023-02-11T01:52:03.670Z,-4.92
2023-02-11T01:55:29.363Z,-5.00
2023-02-11T01:58:32.737Z,-4.94
2023-02-11T02:01:38.060Z,-5.01
2023-02-11T02:04:51.780Z,-5.07
2023-02-11T02:08:03.281Z,-5.04
2023-02-11T02:11:07.452Z,-4.95
2023-02-11T02:14:12.035Z,-4.92
2023-02-11T02:17:38.966Z,-5.06
2023-02-11T02:20:59.419Z,-4.98
2023-02-11T02:24:22.267Z,-5.04
2023-02-11T02:27:53.371Z,-5.09
2023-02-11T02:30:55.342Z,-5.10
2023-02-11T02:34:21.494Z,-5.13
2023-02-11T02:38:05.192Z,-5.08
2023-02-11T02:41:10.958Z,-5.11
2023-02-11T02:44:12.826Z,-5.30
2023-02-11T02:47:14.834Z,-5.24
2023-02-11T02:50:25.024Z,-5.24
2023-02-11T02:53:42.060Z,-5.36
2023-02-11T02:56:43.820Z,-5.33
2023-02-11T02:59:48.280Z,-5.03
2023-02-11T03:03:06.424Z,-5.13
2023-02-11T03:06:15.620Z,-5.28
2023-02-11T03:09:25.395Z,-5.49
2023-02-11T03:12:31.174Z,-5.35
2023-02-11T03:15:43.659Z,-5.42
2023-02-11T03:18:52.736Z,-5.38
2023-02-11T03:21:56.099Z,-5.48
2023-02-11T03:24:58.344Z,-5.47
2023-02-11T03:28:10.535Z,-5.55
2023-02-11T03:31:22.728Z,-5.57
2023-02-11T03:34:36.435Z,-5.57
2023-02-11T03:37:43.903Z,-5.66
2023-02-11T03:40:46.329Z,-5.62
2023-02-11T03:44:03.711Z,-5.63
2023-02-11T03:47:09.189Z,-5.66
2023-02-11T03:50:14.933Z,-5.63
2023-02-11T03:53:18.173Z,-5.66
2023-02-11T03:56:26.328Z,-5.75
2023-02-11T03:59:29.061Z,-5.84
2023-02-11T04:02:34.570Z,-5.94
2023-02-11T04:05:37.179Z,-6.00
2023-02-11T04:08:39.091Z,-5.94
2023-02-11T04:11:41.022Z,-5.84
2023-02-11T04:14:42.875Z,-5.86
2023-02-11T04:17:44.730Z,-5.79
2023-02-11T04:20:46.675Z,-5.96
2023-02-11T04:23:48.795Z,-5.84
2023-02-11T04:26:50.736Z,-5.93
2023-02-11T04:29:52.728Z,-5.94
2023-02-11T04:32:54.665Z,-5.98
2023-02-11T04:35:56.551Z,-6.02
2023-02-11T04:38:59.254Z,-6.01
2023-02-11T04:42:01.107Z,-6.04
2023-02-11T04:45:03.267Z,-6.03
2023-02-11T04:48:09.022Z,-6.02
2023-02-11T04:51:11.587Z,-6.02
2023-02-11T04:54:13.467Z,-5.99
2023-02-11T04:57:15.599Z,-6.02
2023-02-11T05:00:17.656Z,-5.99
2023-02-11T05:03:19.605Z,-5.99
2023-02-11T05:06:21.788Z,-6.07
2023-02-11T05:09:23.616Z,-6.12
2023-02-11T05:12:25.622Z,-6.06
2023-02-11T05:15:28.175Z,-5.97
2023-02-11T05:18:30.272Z,-5.91
2023-02-11T05:21:32.282Z,-5.99
2023-02-11T05:24:34.771Z,-5.96
2023-02-11T05:27:36.625Z,-5.99
2023-02-11T05:30:38.870Z,-6.04
2023-02-11T05:33:41.530Z,-6.00
2023-02-11T05:36:43.458Z,-5.93
2023-02-11T05:39:45.379Z,-5.90
2023-02-11T05:42:47.287Z,-5.98
2023-02-11T05:45:49.509Z,-6.09
2023-02-11T05:48:51.920Z,-6.05
2023-02-11T05:51:53.825Z,-6.06
2023-02-11T05:54:55.782Z,-6.11
2023-02-11T05:57:57.762Z,-6.15
2023-02-11T06:00:59.598Z,-6.18
2023-02-11T06:04:01.637Z,-6.23
2023-02-11T06:07:04.147Z,-6.14
2023-02-11T06:10:06.621Z,-6.09
2023-02-11T06:13:08.554Z,-6.05
2023-02-11T06:16:10.473Z,-5.96
2023-02-11T06:19:13.139Z,-5.94
2023-02-11T06:22:15.382Z,-5.86
2023-02-11T06:25:17.436Z,-5.83
2023-02-11T06:28:19.750Z,-5.93
2023-02-11T06:31:22.111Z,-5.75
2023-02-11T06:34:24.134Z,-5.71
2023-02-11T06:37:25.961Z,-5.71
2023-02-11T06:40:27.807Z,-5.68
2023-02-11T06:43:29.658Z,-5.79
2023-02-11T06:46:31.909Z,-5.84
2023-02-11T06:49:33.844Z,-5.88
2023-02-11T06:52:35.662Z,-5.83
2023-02-11T06:55:37.578Z,-5.93
2023-02-11T06:58:39.758Z,-5.53
2023-02-11T07:01:41.711Z,-5.65
2023-02-11T07:04:44.062Z,-5.49
2023-02-11T07:07:46.010Z,-5.48
2023-02-11T07:10:47.975Z,-5.41
2023-02-11T07:13:51.387Z,-5.50
2023-02-11T07:16:53.255Z,-5.33
2023-02-11T07:19:55.083Z,-5.33
2023-02-11T07:22:57.044Z,-5.19
2023-02-11T07:26:03.669Z,-5.16
2023-02-11T07:29:05.790Z,-4.93
2023-02-11T07:32:07.674Z,-4.96
2023-02-11T07:35:09.562Z,-5.00
2023-02-11T07:38:11.387Z,-4.82
2023-02-11T07:41:16.013Z,-5.00
2023-02-11T07:44:17.866Z,-4.96
2023-02-11T07:47:19.879Z,-5.20
2023-02-11T07:50:21.998Z,-4.88
2023-02-11T07:53:24.070Z,-4.84
2023-02-11T07:56:26.387Z,-4.78
2023-02-11T07:59:28.722Z,-4.78
2023-02-11T08:02:30.583Z,-4.68
2023-02-11T08:05:32.425Z,-4.58
2023-02-11T08:08:34.612Z,-4.64
2023-02-11T08:11:37.005Z,-4.59
2023-02-11T08:14:39.036Z,-4.75
2023-02-11T08:17:41.007Z,-4.75
2023-02-11T08:20:43.018Z,-4.65
2023-02-11T08:23:46.428Z,-4.80
2023-02-11T08:26:48.769Z,-4.54
2023-02-11T08:29:50.690Z,-4.41
2023-02-11T08:32:52.776Z,-4.33
2023-02-11T08:35:54.624Z,-4.07
2023-02-11T08:39:16.084Z,-3.97
2023-02-11T08:42:21.979Z,-3.90
2023-02-11T08:45:23.918Z,-4.01
2023-02-11T08:48:26.274Z,-3.86
2023-02-11T08:51:33.040Z,-3.90
2023-02-11T08:54:35.035Z,-3.80
2023-02-11T08:57:36.985Z,-3.89
2023-02-11T09:00:38.943Z,-3.82
2023-02-11T09:03:41.183Z,-3.73
2023-02-11T09:06:43.240Z,-3.53
2023-02-11T09:09:45.248Z,-3.40
2023-02-11T09:12:47.171Z,-3.20
2023-02-11T09:15:49.040Z,-3.41
2023-02-11T09:18:53.669Z,-3.19
2023-02-11T09:21:55.959Z,-3.21
2023-02-11T09:24:57.926Z,-3.24
2023-02-11T09:27:59.847Z,-3.16
2023-02-11T09:31:09.247Z,-3.01
2023-02-11T09:34:11.870Z,-3.06
2023-02-11T09:37:13.953Z,-2.85
2023-02-11T09:40:16.880Z,-3.15
2023-02-11T09:43:22.720Z,-3.04
2023-02-11T09:46:27.688Z,-2.52
2023-02-11T09:49:44.383Z,-2.01
2023-02-11T09:53:07.614Z,-2.13
2023-02-11T09:56:14.836Z,-2.16
2023-02-11T09:59:17.682Z,-1.99
2023-02-11T10:02:24.127Z,-2.02
2023-02-11T10:05:52.541Z,-1.64
2023-02-11T10:09:11.857Z,-1.85
2023-02-11T10:12:37.547Z,-1.78
2023-02-11T10:16:08.403Z,-1.71
2023-02-11T10:19:19.314Z,-1.44
2023-02-11T10:22:43.139Z,-1.54
2023-02-11T10:25:49.116Z,-1.64
2023-02-11T10:28:54.371Z,-1.36
2023-02-11T10:31:58.558Z,-1.01
2023-02-11T10:35:04.367Z,-1.24
2023-02-11T10:38:06.330Z,-1.02
2023-02-11T10:41:15.315Z,-0.90
2023-02-11T10:44:30.136Z,-1.31
2023-02-11T10:47:39.669Z,-1.09
2023-02-11T10:50:41.535Z,-0.92
2023-02-11T10:53:43.725Z,-1.27
2023-02-11T10:56:50.224Z,-0.88
2023-02-11T10:59:58.363Z,-0.62
2023-02-11T11:03:01.945Z,-0.52
2023-02-11T11:06:09.328Z,-0.57
2023-02-11T11:09:28.839Z,-0.61
2023-02-11T11:12:35.092Z,-0.17
2023-02-11T11:15:37.028Z,-0.36
2023-02-11T11:18:40.597Z,-0.42
2023-02-11T12:07:32.735Z,0.83
2023-02-11T12:10:55.362Z,0.94
2023-02-11T12:14:40.161Z,1.17
2023-02-11T12:17:51.091Z,1.24
2023-02-11T12:21:30.326Z,1.34
2023-02-11T12:24:42.557Z,1.09
2023-02-11T12:28:13.562Z,1.38
2023-02-11T12:31:24.277Z,1.20
2023-02-11T12:34:50.666Z,1.46
2023-02-11T12:38:08.381Z,1.55
2023-02-11T12:41:46.344Z,1.77
2023-02-11T12:45:12.856Z,1.93
2023-02-11T12:48:45.393Z,1.77
2023-02-11T12:51:50.377Z,1.72
2023-02-11T12:55:09.459Z,1.96
2023-02-11T12:58:35.644Z,1.94
2023-02-11T13:01:45.191Z,1.85
2023-02-11T13:04:54.257Z,2.27
2023-02-11T13:08:04.624Z,2.28
2023-02-11T13:11:17.278Z,2.34
2023-02-11T13:14:24.525Z,2.32
2023-02-11T13:17:34.951Z,2.36
2023-02-11T13:21:03.581Z,2.36
2023-02-11T13:24:13.480Z,2.39
2023-02-11T13:27:41.510Z,2.58
2023-02-11T13:30:51.410Z,2.47
2023-02-11T13:33:53.824Z,2.52
2023-02-11T13:36:57.414Z,2.60
2023-02-11T13:40:21.224Z,2.65
2023-02-11T13:43:28.423Z,2.52
2023-02-11T13:46:54.167Z,2.46
2023-02-11T13:49:57.013Z,2.39
2023-02-11T13:53:01.278Z,2.45
2023-02-11T13:56:11.413Z,2.57
2023-02-11T13:59:25.872Z,2.69
2023-02-11T14:02:56.045Z,2.60
2023-02-11T14:06:28.804Z,2.75
2023-02-11T14:09:37.064Z,2.73
2023-02-11T14:12:39.348Z,2.80
2023-02-11T14:15:41.209Z,2.82
2023-02-11T14:18:49.352Z,2.95
2023-02-11T14:21:53.666Z,2.84
2023-02-11T14:25:04.726Z,3.01
2023-02-11T14:28:22.372Z,3.06
2023-02-11T14:31:36.106Z,2.98
2023-02-11T14:34:46.688Z,2.62
2023-02-11T14:37:55.860Z,2.46
2023-02-11T14:41:10.854Z,2.39
2023-02-11T14:44:27.926Z,2.39
2023-02-11T14:47:46.553Z,2.34
2023-02-11T14:51:10.653Z,2.11
2023-02-11T14:54:17.362Z,1.97
2023-02-11T14:57:20.556Z,1.92
2023-02-11T15:00:23.117Z,1.85
2023-02-11T15:03:31.993Z,1.64
2023-02-11T15:06:39.974Z,1.48
2023-02-11T15:09:45.712Z,1.46
2023-02-11T15:12:49.358Z,1.28
2023-02-11T15:15:56.294Z,1.24
2023-02-11T15:19:02.821Z,1.20
2023-02-11T15:22:07.331Z,1.13
2023-02-11T15:25:15.027Z,1.07
2023-02-11T15:28:28.993Z,0.94
2023-02-11T15:31:33.867Z,0.76
2023-02-11T15:34:37.553Z,0.57
2023-02-11T15:37:40.723Z,0.44
2023-02-11T15:40:55.956Z,0.31
2023-02-11T15:43:57.918Z,0.20
2023-02-11T15:47:00.367Z,0.13
2023-02-11T15:50:03.097Z,0.04
2023-02-11T15:53:24.340Z,-0.06
2023-02-11T15:56:30.589Z,-0.07
2023-02-11T15:59:39.322Z,-0.02
2023-02-11T16:02:46.675Z,-0.13
2023-02-11T16:05:48.958Z,-0.11
2023-02-11T16:09:06.301Z,-0.02
2023-02-11T16:12:27.207Z,-0.01
2023-02-11T16:15:50.926Z,0.02
2023-02-11T16:19:04.851Z,0.02
2023-02-11T16:22:10.603Z,0.10
2023-02-11T16:25:20.759Z,0.12
2023-02-11T16:28:23.004Z,0.09
2023-02-11T16:31:33.530Z,0.07
2023-02-11T16:34:36.547Z,-0.01
2023-02-11T16:37:38.624Z,0.02
2023-02-11T16:40:41.148Z,-0.06
2023-02-11T16:43:43.263Z,-0.06
2023-02-11T16:46:45.670Z,-0.04
2023-02-11T16:49:47.997Z,-0.01
2023-02-11T16:52:52.299Z,0.12
2023-02-11T16:55:54.203Z,0.14
2023-02-11T16:58:56.564Z,0.13
2023-02-11T17:01:58.545Z,0.26
2023-02-11T17:05:03.445Z,0.37
2023-02-11T17:08:06.483Z,0.37
2023-02-11T17:11:08.615Z,0.44
2023-02-11T17:14:10.762Z,0.46
2023-02-11T17:17:13.910Z,0.58
2023-02-11T17:20:16.427Z,0.43
2023-02-11T17:23:18.491Z,0.36
2023-02-11T17:26:20.643Z,0.54
2023-02-11T17:29:24.533Z,0.43
2023-02-11T17:32:26.677Z,0.36
2023-02-11T17:35:28.847Z,0.34
2023-02-11T17:38:30.880Z,0.28
2023-02-11T17:41:33.302Z,0.32
2023-02-11T17:44:35.769Z,0.23
2023-02-11T17:47:37.997Z,0.26
2023-02-11T17:50:40.079Z,0.22
2023-02-11T17:53:42.230Z,0.18
2023-02-11T17:56:45.438Z,0.14
2023-02-11T17:59:48.032Z,0.14
2023-02-11T18:02:50.377Z,0.13
2023-02-11T18:09:12.072Z,0.07
2023-02-11T18:12:14.345Z,0.16
2023-02-11T18:15:16.608Z,0.05
2023-02-11T18:18:18.432Z,0.13
2023-02-11T18:21:22.355Z,0.21
2023-02-11T18:24:24.479Z,0.14
2023-02-11T18:27:28.108Z,0.21
2023-02-11T18:30:33.913Z,0.20
2023-02-11T18:33:37.587Z,0.24
2023-02-11T18:36:39.846Z,0.20
2023-02-11T18:39:42.909Z,0.16
2023-02-11T18:42:46.273Z,0.09
2023-02-11T18:45:50.489Z,-0.12
2023-02-11T18:48:56.001Z,-0.09
2023-02-11T18:51:58.868Z,-0.05
2023-02-11T18:55:01.006Z,-0.07
2023-02-11T18:58:03.207Z,-0.06
2023-02-11T19:01:27.564Z,-0.05
2023-02-11T19:04:29.841Z,0.03
2023-02-11T19:07:32.587Z,0.21
2023-02-11T19:10:34.840Z,0.11
2023-02-11T19:13:37.421Z,0.13
2023-02-11T19:16:41.909Z,0.12
2023-02-11T19:19:44.059Z,0.15
2023-02-11T19:22:46.170Z,0.17
2023-02-11T19:25:48.607Z,0.24
2023-02-11T19:28:50.735Z,0.41
2023-02-11T19:31:53.043Z,0.59
2023-02-11T19:34:55.276Z,0.50
2023-02-11T19:37:57.411Z,0.09
2023-02-11T19:40:59.508Z,0.26
2023-02-11T19:44:02.868Z,0.15
2023-02-11T19:47:06.964Z,0.27
2023-02-11T19:50:09.618Z,0.18
2023-02-11T19:53:11.749Z,0.21
2023-02-11T19:56:15.502Z,0.40
2023-02-11T19:59:17.711Z,0.40
2023-02-11T20:02:20.794Z,0.39
2023-02-11T20:05:22.991Z,0.40
2023-02-11T20:08:24.953Z,0.41
2023-02-11T20:11:28.899Z,0.60
2023-02-11T20:14:31.684Z,0.37
2023-02-11T20:17:33.931Z,0.60
2023-02-11T20:20:41.304Z,0.69
2023-02-11T20:23:46.506Z,0.59
2023-02-11T20:26:49.349Z,0.44
2023-02-11T20:29:51.540Z,0.69
2023-02-11T20:32:53.450Z,0.83
2023-02-11T20:35:57.997Z,0.90
2023-02-11T20:39:01.208Z,0.85
2023-02-11T20:42:03.810Z,0.52
2023-02-11T20:45:06.082Z,0.52
2023-02-11T20:48:08.304Z,0.41
2023-02-11T20:51:17.535Z,0.50
2023-02-11T20:54:21.007Z,0.66
2023-02-11T20:57:23.147Z,0.67
2023-02-11T21:00:25.642Z,0.80
2023-02-11T21:03:27.771Z,0.57
2023-02-11T21:06:39.987Z,0.73
2023-02-11T21:09:42.371Z,0.84
2023-02-11T21:12:44.540Z,1.03
2023-02-11T21:15:46.407Z,1.07
2023-02-11T21:18:52.465Z,1.03
2023-02-11T21:21:57.273Z,1.00
2023-02-11T21:25:01.056Z,0.90
2023-02-11T21:28:03.616Z,1.03
2023-02-11T21:31:05.817Z,1.07
2023-02-11T21:34:08.620Z,1.00
2023-02-11T21:37:10.670Z,1.03
2023-02-11T21:40:14.830Z,1.13
2023-02-11T21:43:16.946Z,1.02
2023-02-11T21:46:19.846Z,1.06
2023-02-11T21:49:21.836Z,1.09
2023-02-11T21:52:24.171Z,0.95
2023-02-11T21:55:26.279Z,0.86
2023-02-11T21:58:28.322Z,0.72
2023-02-11T22:01:35.233Z,0.63
2023-02-11T22:04:37.168Z,0.50
2023-02-11T22:07:39.086Z,0.45
2023-02-11T22:10:41.076Z,0.39
2023-02-11T22:13:43.187Z,0.25
2023-02-11T22:16:47.561Z,0.13
2023-02-11T22:19:50.042Z,-0.18
2023-02-11T22:22:51.966Z,-0.25
2023-02-11T22:25:54.103Z,-0.26
2023-02-11T22:28:56.924Z,-0.28
2023-02-11T22:31:59.398Z,-0.28
2023-02-11T22:35:01.368Z,-0.31
2023-02-11T22:38:04.504Z,-0.49
2023-02-11T22:41:09.177Z,-0.47
2023-02-11T22:44:12.014Z,-0.52
2023-02-11T22:47:13.911Z,-0.47
2023-02-11T22:50:16.190Z,-0.44
2023-02-11T22:53:18.514Z,-0.62
2023-02-11T22:56:20.664Z,-0.86
2023-02-11T22:59:22.837Z,-0.82
2023-02-11T23:02:24.837Z,-0.77
2023-02-11T23:05:27.391Z,-0.73
2023-02-11T23:08:30.967Z,-0.65
2023-02-11T23:11:33.794Z,-0.62
2023-02-11T23:14:35.954Z,-0.58
2023-02-11T23:17:37.827Z,-0.59
2023-02-11T23:20:42.842Z,-0.60
2023-02-11T23:23:45.237Z,-0.41
2023-02-11T23:26:47.128Z,-0.46
2023-02-11T23:29:49.585Z,-0.39
2023-02-11T23:32:52.750Z,-0.40
2023-02-11T23:35:54.936Z,-0.49
2023-02-11T23:38:56.990Z,-0.55
2023-02-11T23:41:59.606Z,-0.57
2023-02-11T23:45:01.896Z,-0.52
2023-02-11T23:48:10.349Z,-0.51
2023-02-11T23:51:12.240Z,-0.41
2023-02-11T23:54:14.799Z,-0.42
2023-02-11T23:57:16.942Z,-0.40
